Honolulu, HI

11:45 AM HST am 25. April 2015 (GMT -1000)
Pacific Heights | | Change Station
CLOSE
Current Station
Persönliche Wetterstationen
Location: Honolulu, HI
Höhe: 528 ft
Wetterstationen in der Umgebung

Höhe 528 ft 21.33 °N, 157.84 °W | Updated 6 seconds ago

Mostly Cloudy
Wolkig
77.7 °F
gefühlte 80 °F
N
8.9
Wind Wechselnd Wind aus Südwest
Gusts 18.0 mph

Heute
Max. -- | schwach -- °F
--% Regenrisiko
Gestern
Max. -- | schwach -- °F
Precip. -- inch
6:04 AM 6:54 PM
Erstes Viertel, 49% visible
Druck 30.00 inch
Sichtweite 10.0 Meilen
Wolken Few 2300 ft
Teils Wolkig 3100 ft
Teils Wolkig 6000 ft
Wolkig 13000 ft
Hitzeindex 80 °F
Taupunkt 70 °F
Feuchtigkeit 77%
Regen 0.00 inch
Schneehöhe Nicht verfügbar..
UV 6 von 12
Pollen Nicht verfügbar..
Luftqualität Nicht verfügbar..
Flu Activity Regional
METAR PHNL 252053Z 19010KT 10SM FEW023 SCT031 SCT060 BKN130 26/21 A3000 RMK AO2 SLP158 VCSH NW-N-E T02560211 50003

More Conditions Fewer Conditions

Druck 30.00 inch
Sichtweite 10.0 Meilen
Wolken Few 2300 ft
Teils Wolkig 3100 ft
Teils Wolkig 6000 ft
Wolkig 13000 ft
Hitzeindex 80 °F
Taupunkt 70 °F
Feuchtigkeit 77%
Regen 0.00 inch
Schneehöhe Nicht verfügbar..
UV 6 von 12
Pollen Nicht verfügbar..
Luftqualität Nicht verfügbar..
Flu Activity Regional
METAR PHNL 252053Z 19010KT 10SM FEW023 SCT031 SCT060 BKN130 26/21 A3000 RMK AO2 SLP158 VCSH NW-N-E T02560211 50003

More Conditions Fewer Conditions

10-Day Weather Forecast

Almanac

Astronomie

Apr. 25, 2015 Aufgang Untergang
Genaue Zeit
Bürgerliche Dämmerung
Nautische Dämmerung
Astronomische Dämmerung
Mond
Länge des sichtbaren Lichts
Tageslänge
Tomorrow will be .
, % of the Moon is Illuminated

Heutige Rekorde

State Highs State Lows

Community

WunderPhotos

Upload Photos

1,816,820 Fotos hochgeladen!

WunderBlogs® & News

Nearby

Luftqualität

  Luftqualität LQ Index Schadstoff
Not available.

Schneehöhe

Station Depth Höhe

Erdbebenaktivität

Stadt Distance Mag. Time & Date
Minimum magnitude displayed is 2.5.

küstennahe Wassertemperaturen

Ort Temperatur

Stations

Wetterstationen in der Umgebung

Stationsstandort Temp. Windchill Taupunkt Feuchtigkeit Wind Precip. Höhe Aktualisiert Art